sensor_id;sensor_type;location;lat;lon;timestamp;temperature;humidity
506;DHT22;551;48.524;9.056;2022-09-19T00:01:15;12.60;1.00
506;DHT22;551;48.524;9.056;2022-09-19T00:03:44;12.60;1.00
506;DHT22;551;48.524;9.056;2022-09-19T00:06:11;12.50;1.00
506;DHT22;551;48.524;9.056;2022-09-19T00:08:38;12.40;1.00
506;DHT22;551;48.524;9.056;2022-09-19T00:11:05;12.40;1.00
506;DHT22;551;48.524;9.056;2022-09-19T00:13:32;12.30;1.00
506;DHT22;551;48.524;9.056;2022-09-19T00:15:57;12.10;1.00
506;DHT22;551;48.524;9.056;2022-09-19T00:18:23;12.10;1.00
506;DHT22;551;48.524;9.056;2022-09-19T00:20:49;12.00;1.00
506;DHT22;551;48.524;9.056;2022-09-19T00:23:16;11.90;1.00
506;DHT22;551;48.524;9.056;2022-09-19T00:26:04;11.80;1.00
506;DHT22;551;48.524;9.056;2022-09-19T00:28:30;11.80;1.00
506;DHT22;551;48.524;9.056;2022-09-19T00:30:57;11.70;1.00
506;DHT22;551;48.524;9.056;2022-09-19T00:33:24;11.60;1.00
506;DHT22;551;48.524;9.056;2022-09-19T00:36:00;11.60;1.00
506;DHT22;551;48.524;9.056;2022-09-19T00:38:29;11.50;1.00
506;DHT22;551;48.524;9.056;2022-09-19T00:40:56;11.40;1.00
506;DHT22;551;48.524;9.056;2022-09-19T00:43:23;11.40;1.00
506;DHT22;551;48.524;9.056;2022-09-19T00:45:51;11.40;1.00
506;DHT22;551;48.524;9.056;2022-09-19T00:48:18;11.30;1.00
506;DHT22;551;48.524;9.056;2022-09-19T00:50:49;11.30;1.00
506;DHT22;551;48.524;9.056;2022-09-19T00:53:20;11.30;1.00
506;DHT22;551;48.524;9.056;2022-09-19T00:55:49;11.30;1.00
506;DHT22;551;48.524;9.056;2022-09-19T00:58:26;11.30;1.00
506;DHT22;551;48.524;9.056;2022-09-19T01:00:53;11.30;1.00
506;DHT22;551;48.524;9.056;2022-09-19T01:03:19;11.30;1.00
506;DHT22;551;48.524;9.056;2022-09-19T01:09:02;11.30;1.00
506;DHT22;551;48.524;9.056;2022-09-19T01:11:47;11.30;1.00
506;DHT22;551;48.524;9.056;2022-09-19T01:17:18;11.20;1.00
506;DHT22;551;48.524;9.056;2022-09-19T01:22:48;11.10;1.00
506;DHT22;551;48.524;9.056;2022-09-19T01:25:30;11.10;1.00
506;DHT22;551;48.524;9.056;2022-09-19T01:28:19;11.10;1.00
506;DHT22;551;48.524;9.056;2022-09-19T01:31:01;11.10;1.00
506;DHT22;551;48.524;9.056;2022-09-19T01:34:08;11.00;1.00
506;DHT22;551;48.524;9.056;2022-09-19T01:36:40;10.90;1.00
506;DHT22;551;48.524;9.056;2022-09-19T01:39:08;10.80;1.00
506;DHT22;551;48.524;9.056;2022-09-19T01:41:34;10.70;1.00
506;DHT22;551;48.524;9.056;2022-09-19T01:44:02;10.50;1.00
506;DHT22;551;48.524;9.056;2022-09-19T01:47:03;10.50;1.00
506;DHT22;551;48.524;9.056;2022-09-19T01:52:22;10.30;1.00
506;DHT22;551;48.524;9.056;2022-09-19T01:54:59;10.20;1.00
506;DHT22;551;48.524;9.056;2022-09-19T02:00:14;10.00;1.00
506;DHT22;551;48.524;9.056;2022-09-19T02:03:15;9.90;1.00
506;DHT22;551;48.524;9.056;2022-09-19T02:08:31;9.80;1.00
506;DHT22;551;48.524;9.056;2022-09-19T02:11:05;9.70;1.00
506;DHT22;551;48.524;9.056;2022-09-19T02:13:38;9.60;1.00
506;DHT22;551;48.524;9.056;2022-09-19T02:16:16;9.60;1.00
506;DHT22;551;48.524;9.056;2022-09-19T02:19:06;9.50;1.00
506;DHT22;551;48.524;9.056;2022-09-19T02:21:40;9.40;1.00
506;DHT22;551;48.524;9.056;2022-09-19T02:24:10;9.40;1.00
506;DHT22;551;48.524;9.056;2022-09-19T02:26:42;9.30;1.00
506;DHT22;551;48.524;9.056;2022-09-19T02:29:13;9.30;1.00
506;DHT22;551;48.524;9.056;2022-09-19T02:31:41;9.20;1.00
506;DHT22;551;48.524;9.056;2022-09-19T02:34:07;9.20;1.00
506;DHT22;551;48.524;9.056;2022-09-19T02:39:20;9.10;1.00
506;DHT22;551;48.524;9.056;2022-09-19T02:42:09;9.10;1.00
506;DHT22;551;48.524;9.056;2022-09-19T02:45:03;9.00;1.00
506;DHT22;551;48.524;9.056;2022-09-19T02:47:48;9.00;1.00
506;DHT22;551;48.524;9.056;2022-09-19T02:50:33;9.00;1.00
506;DHT22;551;48.524;9.056;2022-09-19T02:53:03;8.90;1.00
506;DHT22;551;48.524;9.056;2022-09-19T02:55:34;8.80;1.00
506;DHT22;551;48.524;9.056;2022-09-19T03:00:32;8.70;1.00
506;DHT22;551;48.524;9.056;2022-09-19T03:03:08;8.70;1.00
506;DHT22;551;48.524;9.056;2022-09-19T03:05:55;8.70;1.00
506;DHT22;551;48.524;9.056;2022-09-19T03:08:24;8.50;1.00
506;DHT22;551;48.524;9.056;2022-09-19T03:10:54;8.50;1.00
506;DHT22;551;48.524;9.056;2022-09-19T03:13:23;8.50;1.00
506;DHT22;551;48.524;9.056;2022-09-19T03:16:00;8.50;1.00
506;DHT22;551;48.524;9.056;2022-09-19T03:18:30;8.50;1.00
506;DHT22;551;48.524;9.056;2022-09-19T03:21:00;8.50;1.00
506;DHT22;551;48.524;9.056;2022-09-19T03:23:34;8.50;1.00
506;DHT22;551;48.524;9.056;2022-09-19T03:26:02;8.50;1.00
506;DHT22;551;48.524;9.056;2022-09-19T03:28:28;8.40;1.00
506;DHT22;551;48.524;9.056;2022-09-19T03:30:54;8.40;1.00
506;DHT22;551;48.524;9.056;2022-09-19T03:33:24;8.30;1.00
506;DHT22;551;48.524;9.056;2022-09-19T03:35:50;8.30;1.00
506;DHT22;551;48.524;9.056;2022-09-19T03:38:18;8.20;1.00
506;DHT22;551;48.524;9.056;2022-09-19T03:40:44;8.20;1.00
506;DHT22;551;48.524;9.056;2022-09-19T03:43:09;8.10;1.00
506;DHT22;551;48.524;9.056;2022-09-19T03:45:36;8.10;1.00
506;DHT22;551;48.524;9.056;2022-09-19T03:48:02;8.10;1.00
506;DHT22;551;48.524;9.056;2022-09-19T03:50:27;8.00;1.00
506;DHT22;551;48.524;9.056;2022-09-19T03:52:54;8.00;1.00
506;DHT22;551;48.524;9.056;2022-09-19T03:55:19;8.00;1.00
506;DHT22;551;48.524;9.056;2022-09-19T03:57:45;7.90;1.00
506;DHT22;551;48.524;9.056;2022-09-19T04:00:11;7.90;1.00
506;DHT22;551;48.524;9.056;2022-09-19T04:02:37;7.90;1.00
506;DHT22;551;48.524;9.056;2022-09-19T04:05:03;7.90;1.00
506;DHT22;551;48.524;9.056;2022-09-19T04:07:29;7.90;1.00
506;DHT22;551;48.524;9.056;2022-09-19T04:09:55;7.90;1.00
506;DHT22;551;48.524;9.056;2022-09-19T04:12:22;7.90;1.00
506;DHT22;551;48.524;9.056;2022-09-19T04:14:48;7.90;1.00
506;DHT22;551;48.524;9.056;2022-09-19T04:17:14;7.90;1.00
506;DHT22;551;48.524;9.056;2022-09-19T04:19:40;7.90;1.00
506;DHT22;551;48.524;9.056;2022-09-19T04:22:10;8.00;1.00
506;DHT22;551;48.524;9.056;2022-09-19T04:24:36;8.00;1.00
506;DHT22;551;48.524;9.056;2022-09-19T04:27:08;8.00;1.00
506;DHT22;551;48.524;9.056;2022-09-19T04:29:38;8.00;1.00
506;DHT22;551;48.524;9.056;2022-09-19T04:32:04;8.10;1.00
506;DHT22;551;48.524;9.056;2022-09-19T04:34:30;8.20;1.00
506;DHT22;551;48.524;9.056;2022-09-19T04:36:56;8.20;1.00
506;DHT22;551;48.524;9.056;2022-09-19T04:39:23;8.20;1.00
506;DHT22;551;48.524;9.056;2022-09-19T04:41:49;8.30;1.00
506;DHT22;551;48.524;9.056;2022-09-19T04:44:19;8.40;1.00
506;DHT22;551;48.524;9.056;2022-09-19T04:46:47;8.40;1.00
506;DHT22;551;48.524;9.056;2022-09-19T04:49:16;8.40;1.00
506;DHT22;551;48.524;9.056;2022-09-19T04:51:41;8.40;1.00
506;DHT22;551;48.524;9.056;2022-09-19T04:54:08;8.30;1.00
506;DHT22;551;48.524;9.056;2022-09-19T04:56:34;8.30;1.00
506;DHT22;551;48.524;9.056;2022-09-19T04:58:59;8.30;1.00
506;DHT22;551;48.524;9.056;2022-09-19T05:01:26;8.30;1.00
506;DHT22;551;48.524;9.056;2022-09-19T05:03:52;8.40;1.00
506;DHT22;551;48.524;9.056;2022-09-19T05:06:18;8.50;1.00
506;DHT22;551;48.524;9.056;2022-09-19T05:08:44;8.50;1.00
506;DHT22;551;48.524;9.056;2022-09-19T05:11:10;8.60;1.00
506;DHT22;551;48.524;9.056;2022-09-19T05:13:37;8.70;1.00
506;DHT22;551;48.524;9.056;2022-09-19T05:16:04;8.80;1.00
506;DHT22;551;48.524;9.056;2022-09-19T05:18:30;8.90;1.00
506;DHT22;551;48.524;9.056;2022-09-19T05:21:10;8.90;1.00
506;DHT22;551;48.524;9.056;2022-09-19T05:23:37;9.10;1.00
506;DHT22;551;48.524;9.056;2022-09-19T05:26:12;9.10;1.00
506;DHT22;551;48.524;9.056;2022-09-19T05:28:41;9.20;1.00
506;DHT22;551;48.524;9.056;2022-09-19T05:31:07;9.20;1.00
506;DHT22;551;48.524;9.056;2022-09-19T05:33:33;9.30;1.00
506;DHT22;551;48.524;9.056;2022-09-19T05:36:01;9.30;1.00
506;DHT22;551;48.524;9.056;2022-09-19T05:38:28;9.40;1.00
506;DHT22;551;48.524;9.056;2022-09-19T05:40:56;9.50;1.00
506;DHT22;551;48.524;9.056;2022-09-19T05:43:22;9.50;1.00
506;DHT22;551;48.524;9.056;2022-09-19T05:45:52;9.60;1.00
506;DHT22;551;48.524;9.056;2022-09-19T05:48:18;9.70;1.00
506;DHT22;551;48.524;9.056;2022-09-19T05:50:45;9.70;1.00
506;DHT22;551;48.524;9.056;2022-09-19T05:53:11;9.70;1.00
506;DHT22;551;48.524;9.056;2022-09-19T05:56:07;9.70;1.00
506;DHT22;551;48.524;9.056;2022-09-19T05:58:32;9.80;1.00
506;DHT22;551;48.524;9.056;2022-09-19T06:01:05;9.80;1.00
506;DHT22;551;48.524;9.056;2022-09-19T06:03:31;10.00;1.00
506;DHT22;551;48.524;9.056;2022-09-19T06:05:59;10.00;1.00
506;DHT22;551;48.524;9.056;2022-09-19T06:08:24;10.10;1.00
506;DHT22;551;48.524;9.056;2022-09-19T06:10:50;10.10;1.00
506;DHT22;551;48.524;9.056;2022-09-19T06:13:20;10.10;1.00
506;DHT22;551;48.524;9.056;2022-09-19T06:15:46;10.30;1.00
506;DHT22;551;48.524;9.056;2022-09-19T06:18:12;10.30;1.00
506;DHT22;551;48.524;9.056;2022-09-19T06:20:39;10.50;1.00
506;DHT22;551;48.524;9.056;2022-09-19T06:23:06;10.60;1.00
506;DHT22;551;48.524;9.056;2022-09-19T06:25:33;10.70;1.00
506;DHT22;551;48.524;9.056;2022-09-19T06:28:01;10.80;1.00
506;DHT22;551;48.524;9.056;2022-09-19T06:30:27;10.90;1.00
506;DHT22;551;48.524;9.056;2022-09-19T06:32:53;11.00;1.00
506;DHT22;551;48.524;9.056;2022-09-19T06:35:20;11.00;1.00
506;DHT22;551;48.524;9.056;2022-09-19T06:37:47;11.10;1.00
506;DHT22;551;48.524;9.056;2022-09-19T06:40:14;11.20;1.00
506;DHT22;551;48.524;9.056;2022-09-19T06:42:40;11.30;1.00
506;DHT22;551;48.524;9.056;2022-09-19T06:45:06;11.40;1.00
506;DHT22;551;48.524;9.056;2022-09-19T06:47:35;11.60;1.00
506;DHT22;551;48.524;9.056;2022-09-19T06:50:01;11.70;1.00
506;DHT22;551;48.524;9.056;2022-09-19T06:52:27;11.70;1.00
506;DHT22;551;48.524;9.056;2022-09-19T06:54:53;11.80;1.00
506;DHT22;551;48.524;9.056;2022-09-19T06:57:19;11.80;1.00
506;DHT22;551;48.524;9.056;2022-09-19T06:59:44;11.90;1.00
506;DHT22;551;48.524;9.056;2022-09-19T07:02:10;12.30;1.00
506;DHT22;551;48.524;9.056;2022-09-19T07:04:36;12.40;1.00
506;DHT22;551;48.524;9.056;2022-09-19T07:07:02;12.50;1.00
506;DHT22;551;48.524;9.056;2022-09-19T07:09:27;12.70;1.00
506;DHT22;551;48.524;9.056;2022-09-19T07:11:53;12.80;1.00
506;DHT22;551;48.524;9.056;2022-09-19T07:14:24;13.00;1.00
506;DHT22;551;48.524;9.056;2022-09-19T07:16:50;13.20;1.00
506;DHT22;551;48.524;9.056;2022-09-19T07:19:16;13.40;1.00
506;DHT22;551;48.524;9.056;2022-09-19T07:21:42;14.20;1.00
506;DHT22;551;48.524;9.056;2022-09-19T07:24:08;14.90;1.00
506;DHT22;551;48.524;9.056;2022-09-19T07:26:34;15.10;1.00
506;DHT22;551;48.524;9.056;2022-09-19T07:28:59;14.90;1.00
506;DHT22;551;48.524;9.056;2022-09-19T07:31:28;14.60;1.00
506;DHT22;551;48.524;9.056;2022-09-19T07:33:54;14.70;1.00
506;DHT22;551;48.524;9.056;2022-09-19T07:36:20;14.90;1.00
506;DHT22;551;48.524;9.056;2022-09-19T07:38:50;15.00;1.00
506;DHT22;551;48.524;9.056;2022-09-19T07:41:16;15.10;1.00
506;DHT22;551;48.524;9.056;2022-09-19T07:43:47;15.10;1.00
506;DHT22;551;48.524;9.056;2022-09-19T07:46:12;15.00;1.00
506;DHT22;551;48.524;9.056;2022-09-19T07:48:46;15.20;1.00
506;DHT22;551;48.524;9.056;2022-09-19T07:51:12;15.20;1.00
506;DHT22;551;48.524;9.056;2022-09-19T07:53:38;15.10;1.00
506;DHT22;551;48.524;9.056;2022-09-19T07:56:04;15.20;1.00
506;DHT22;551;48.524;9.056;2022-09-19T07:58:30;15.30;1.00
506;DHT22;551;48.524;9.056;2022-09-19T08:00:58;15.30;1.00
506;DHT22;551;48.524;9.056;2022-09-19T08:03:26;15.70;1.00
506;DHT22;551;48.524;9.056;2022-09-19T08:05:52;16.10;1.00
506;DHT22;551;48.524;9.056;2022-09-19T08:08:20;16.50;1.00
506;DHT22;551;48.524;9.056;2022-09-19T08:10:46;16.80;1.00
506;DHT22;551;48.524;9.056;2022-09-19T08:13:13;17.00;1.00
506;DHT22;551;48.524;9.056;2022-09-19T08:15:39;17.10;1.00
506;DHT22;551;48.524;9.056;2022-09-19T08:18:14;17.20;1.00
506;DHT22;551;48.524;9.056;2022-09-19T08:20:41;17.10;1.00
506;DHT22;551;48.524;9.056;2022-09-19T08:23:09;17.00;1.00
506;DHT22;551;48.524;9.056;2022-09-19T08:25:37;17.10;1.00
506;DHT22;551;48.524;9.056;2022-09-19T08:28:08;17.20;1.00
506;DHT22;551;48.524;9.056;2022-09-19T08:30:34;17.20;1.00
506;DHT22;551;48.524;9.056;2022-09-19T08:33:00;17.50;1.00
506;DHT22;551;48.524;9.056;2022-09-19T08:35:28;17.80;1.00
506;DHT22;551;48.524;9.056;2022-09-19T08:37:56;18.00;1.00
506;DHT22;551;48.524;9.056;2022-09-19T08:43:10;18.20;1.00
506;DHT22;551;48.524;9.056;2022-09-19T08:48:46;17.60;1.00
506;DHT22;551;48.524;9.056;2022-09-19T08:51:19;17.60;1.00
506;DHT22;551;48.524;9.056;2022-09-19T08:53:50;17.70;1.00
506;DHT22;551;48.524;9.056;2022-09-19T08:56:17;17.50;1.00
506;DHT22;551;48.524;9.056;2022-09-19T08:58:49;17.20;1.00
506;DHT22;551;48.524;9.056;2022-09-19T09:01:16;17.20;1.00
506;DHT22;551;48.524;9.056;2022-09-19T09:04:02;17.20;1.00
506;DHT22;551;48.524;9.056;2022-09-19T09:09:21;17.30;1.00
506;DHT22;551;48.524;9.056;2022-09-19T09:12:16;17.40;1.00
506;DHT22;551;48.524;9.056;2022-09-19T09:15:00;17.30;1.00
506;DHT22;551;48.524;9.056;2022-09-19T09:17:37;17.60;1.00
506;DHT22;551;48.524;9.056;2022-09-19T09:20:25;18.10;1.00
506;DHT22;551;48.524;9.056;2022-09-19T09:23:10;18.60;1.00
506;DHT22;551;48.524;9.056;2022-09-19T09:25:45;18.90;1.00
506;DHT22;551;48.524;9.056;2022-09-19T09:28:18;19.10;1.00
506;DHT22;551;48.524;9.056;2022-09-19T09:30:53;19.10;1.00
506;DHT22;551;48.524;9.056;2022-09-19T09:33:27;19.00;1.00
506;DHT22;551;48.524;9.056;2022-09-19T09:36:03;18.50;1.00
506;DHT22;551;48.524;9.056;2022-09-19T09:38:41;18.20;1.00
506;DHT22;551;48.524;9.056;2022-09-19T09:41:15;17.90;1.00
506;DHT22;551;48.524;9.056;2022-09-19T09:47:07;17.90;1.00
506;DHT22;551;48.524;9.056;2022-09-19T09:49:39;18.50;1.00
506;DHT22;551;48.524;9.056;2022-09-19T09:58:06;20.80;1.00
506;DHT22;551;48.524;9.056;2022-09-19T10:00:39;20.50;1.00
506;DHT22;551;48.524;9.056;2022-09-19T10:06:11;19.90;1.00
506;DHT22;551;48.524;9.056;2022-09-19T10:14:18;18.90;1.00
506;DHT22;551;48.524;9.056;2022-09-19T10:16:46;18.70;1.00
506;DHT22;551;48.524;9.056;2022-09-19T10:21:38;18.30;1.00
506;DHT22;551;48.524;9.056;2022-09-19T10:27:23;18.50;1.00
506;DHT22;551;48.524;9.056;2022-09-19T10:29:52;18.30;1.00
506;DHT22;551;48.524;9.056;2022-09-19T10:32:22;18.00;1.00
506;DHT22;551;48.524;9.056;2022-09-19T10:34:50;17.60;1.00
506;DHT22;551;48.524;9.056;2022-09-19T10:37:18;17.30;1.00
506;DHT22;551;48.524;9.056;2022-09-19T10:39:45;17.10;1.00
506;DHT22;551;48.524;9.056;2022-09-19T10:42:40;17.10;1.00
506;DHT22;551;48.524;9.056;2022-09-19T10:45:32;17.20;1.00
506;DHT22;551;48.524;9.056;2022-09-19T10:48:07;17.30;1.00
506;DHT22;551;48.524;9.056;2022-09-19T10:50:33;17.30;1.00
506;DHT22;551;48.524;9.056;2022-09-19T10:53:05;17.40;1.00
506;DHT22;551;48.524;9.056;2022-09-19T10:55:35;17.30;1.00
506;DHT22;551;48.524;9.056;2022-09-19T10:58:04;17.50;1.00
506;DHT22;551;48.524;9.056;2022-09-19T11:00:48;17.60;1.00
506;DHT22;551;48.524;9.056;2022-09-19T11:03:19;17.80;1.00
506;DHT22;551;48.524;9.056;2022-09-19T11:08:40;17.60;1.00
506;DHT22;551;48.524;9.056;2022-09-19T11:22:24;17.10;1.00
506;DHT22;551;48.524;9.056;2022-09-19T11:34:04;16.90;1.00
506;DHT22;551;48.524;9.056;2022-09-19T11:37:00;17.10;1.00
506;DHT22;551;48.524;9.056;2022-09-19T11:42:23;17.80;1.00
506;DHT22;551;48.524;9.056;2022-09-19T11:45:11;18.30;1.00
506;DHT22;551;48.524;9.056;2022-09-19T11:53:39;19.40;1.00
506;DHT22;551;48.524;9.056;2022-09-19T12:02:17;18.70;1.00
506;DHT22;551;48.524;9.056;2022-09-19T12:05:05;18.40;1.00
506;DHT22;551;48.524;9.056;2022-09-19T12:07:46;18.30;1.00
506;DHT22;551;48.524;9.056;2022-09-19T12:10:20;18.30;1.00
506;DHT22;551;48.524;9.056;2022-09-19T12:12:56;18.10;1.00
506;DHT22;551;48.524;9.056;2022-09-19T12:15:25;17.80;1.00
506;DHT22;551;48.524;9.056;2022-09-19T12:18:03;17.90;1.00
506;DHT22;551;48.524;9.056;2022-09-19T12:20:45;18.10;1.00
506;DHT22;551;48.524;9.056;2022-09-19T12:23:26;18.10;1.00
506;DHT22;551;48.524;9.056;2022-09-19T12:26:16;18.00;1.00
506;DHT22;551;48.524;9.056;2022-09-19T12:28:46;18.00;1.00
506;DHT22;551;48.524;9.056;2022-09-19T12:31:20;18.10;1.00
506;DHT22;551;48.524;9.056;2022-09-19T12:33:53;18.10;1.00
506;DHT22;551;48.524;9.056;2022-09-19T12:36:21;18.10;1.00
506;DHT22;551;48.524;9.056;2022-09-19T12:38:53;18.10;1.00
506;DHT22;551;48.524;9.056;2022-09-19T12:52:33;19.70;1.00
506;DHT22;551;48.524;9.056;2022-09-19T12:57:51;19.70;1.00
506;DHT22;551;48.524;9.056;2022-09-19T13:00:18;19.60;1.00
506;DHT22;551;48.524;9.056;2022-09-19T13:02:53;19.50;1.00
506;DHT22;551;48.524;9.056;2022-09-19T13:05:28;19.40;1.00
506;DHT22;551;48.524;9.056;2022-09-19T13:07:59;19.30;1.00
506;DHT22;551;48.524;9.056;2022-09-19T13:10:34;19.40;1.00
506;DHT22;551;48.524;9.056;2022-09-19T13:16:00;19.10;1.00
506;DHT22;551;48.524;9.056;2022-09-19T13:18:28;18.90;1.00
506;DHT22;551;48.524;9.056;2022-09-19T13:21:27;18.70;1.00
506;DHT22;551;48.524;9.056;2022-09-19T13:24:12;18.50;1.00
506;DHT22;551;48.524;9.056;2022-09-19T13:26:38;18.10;1.00
506;DHT22;551;48.524;9.056;2022-09-19T13:29:06;18.10;1.00
506;DHT22;551;48.524;9.056;2022-09-19T13:37:02;18.30;1.00
506;DHT22;551;48.524;9.056;2022-09-19T13:39:52;18.50;1.00
506;DHT22;551;48.524;9.056;2022-09-19T13:42:32;18.70;1.00
506;DHT22;551;48.524;9.056;2022-09-19T13:45:06;18.80;1.00
506;DHT22;551;48.524;9.056;2022-09-19T13:47:39;18.80;1.00
506;DHT22;551;48.524;9.056;2022-09-19T13:52:44;18.90;1.00
506;DHT22;551;48.524;9.056;2022-09-19T13:57:38;18.70;1.00
506;DHT22;551;48.524;9.056;2022-09-19T14:00:25;18.60;1.00
506;DHT22;551;48.524;9.056;2022-09-19T14:03:27;18.60;1.00
506;DHT22;551;48.524;9.056;2022-09-19T14:06:34;18.60;1.00
506;DHT22;551;48.524;9.056;2022-09-19T14:11:44;18.70;1.00
506;DHT22;551;48.524;9.056;2022-09-19T14:19:53;18.90;1.00
506;DHT22;551;48.524;9.056;2022-09-19T14:25:17;18.90;1.00
506;DHT22;551;48.524;9.056;2022-09-19T14:31:00;18.60;1.00
506;DHT22;551;48.524;9.056;2022-09-19T14:42:19;18.30;1.00
506;DHT22;551;48.524;9.056;2022-09-19T14:47:44;18.10;1.00
506;DHT22;551;48.524;9.056;2022-09-19T14:50:42;18.10;1.00
506;DHT22;551;48.524;9.056;2022-09-19T14:53:24;18.00;1.00
506;DHT22;551;48.524;9.056;2022-09-19T14:55:52;17.90;1.00
506;DHT22;551;48.524;9.056;2022-09-19T14:58:32;17.80;1.00
506;DHT22;551;48.524;9.056;2022-09-19T15:01:12;17.70;1.00
506;DHT22;551;48.524;9.056;2022-09-19T15:04:01;17.50;1.00
506;DHT22;551;48.524;9.056;2022-09-19T15:06:30;17.50;1.00
506;DHT22;551;48.524;9.056;2022-09-19T15:08:57;17.40;1.00
506;DHT22;551;48.524;9.056;2022-09-19T15:11:23;17.40;1.00
506;DHT22;551;48.524;9.056;2022-09-19T15:13:52;17.30;1.00
506;DHT22;551;48.524;9.056;2022-09-19T15:16:19;17.30;1.00
506;DHT22;551;48.524;9.056;2022-09-19T15:18:48;17.30;1.00
506;DHT22;551;48.524;9.056;2022-09-19T15:21:19;17.20;1.00
506;DHT22;551;48.524;9.056;2022-09-19T15:23:46;17.20;1.00
506;DHT22;551;48.524;9.056;2022-09-19T15:26:20;17.20;1.00
506;DHT22;551;48.524;9.056;2022-09-19T15:31:24;17.10;1.00
506;DHT22;551;48.524;9.056;2022-09-19T15:33:59;16.90;1.00
506;DHT22;551;48.524;9.056;2022-09-19T15:36:26;16.80;1.00
506;DHT22;551;48.524;9.056;2022-09-19T15:38:53;16.70;1.00
506;DHT22;551;48.524;9.056;2022-09-19T15:41:21;16.50;1.00
506;DHT22;551;48.524;9.056;2022-09-19T15:43:47;16.40;1.00
506;DHT22;551;48.524;9.056;2022-09-19T15:48:56;16.20;1.00
506;DHT22;551;48.524;9.056;2022-09-19T15:51:31;16.10;1.00
506;DHT22;551;48.524;9.056;2022-09-19T15:53:58;16.00;1.00
506;DHT22;551;48.524;9.056;2022-09-19T15:56:25;15.90;1.00
506;DHT22;551;48.524;9.056;2022-09-19T15:58:52;15.80;1.00
506;DHT22;551;48.524;9.056;2022-09-19T16:01:21;15.70;1.00
506;DHT22;551;48.524;9.056;2022-09-19T16:03:59;15.70;1.00
506;DHT22;551;48.524;9.056;2022-09-19T16:06:36;15.70;1.00
506;DHT22;551;48.524;9.056;2022-09-19T16:09:32;15.80;1.00
506;DHT22;551;48.524;9.056;2022-09-19T16:11:58;15.80;1.00
506;DHT22;551;48.524;9.056;2022-09-19T16:14:30;15.80;1.00
506;DHT22;551;48.524;9.056;2022-09-19T16:16:58;15.80;1.00
506;DHT22;551;48.524;9.056;2022-09-19T16:21:57;15.90;1.00
506;DHT22;551;48.524;9.056;2022-09-19T16:24:27;15.90;1.00
506;DHT22;551;48.524;9.056;2022-09-19T16:26:57;15.90;1.00
506;DHT22;551;48.524;9.056;2022-09-19T16:29:27;15.90;1.00
506;DHT22;551;48.524;9.056;2022-09-19T16:31:54;15.90;1.00
506;DHT22;551;48.524;9.056;2022-09-19T16:34:35;15.90;1.00
506;DHT22;551;48.524;9.056;2022-09-19T16:37:03;16.00;1.00
506;DHT22;551;48.524;9.056;2022-09-19T16:42:00;16.20;1.00
506;DHT22;551;48.524;9.056;2022-09-19T16:44:38;16.20;1.00
506;DHT22;551;48.524;9.056;2022-09-19T16:49:32;16.00;1.00
506;DHT22;551;48.524;9.056;2022-09-19T16:51:59;15.90;1.00
506;DHT22;551;48.524;9.056;2022-09-19T16:54:24;15.70;1.00
506;DHT22;551;48.524;9.056;2022-09-19T16:56:50;15.50;1.00
506;DHT22;551;48.524;9.056;2022-09-19T16:59:17;15.40;1.00
506;DHT22;551;48.524;9.056;2022-09-19T17:01:45;15.30;1.00
506;DHT22;551;48.524;9.056;2022-09-19T17:04:15;15.20;1.00
506;DHT22;551;48.524;9.056;2022-09-19T17:06:42;15.10;1.00
506;DHT22;551;48.524;9.056;2022-09-19T17:09:07;15.10;1.00
506;DHT22;551;48.524;9.056;2022-09-19T17:11:33;15.10;1.00
506;DHT22;551;48.524;9.056;2022-09-19T17:13:58;15.00;1.00
506;DHT22;551;48.524;9.056;2022-09-19T17:16:24;14.90;1.00
506;DHT22;551;48.524;9.056;2022-09-19T17:18:49;14.90;1.00
506;DHT22;551;48.524;9.056;2022-09-19T17:21:15;14.80;1.00
506;DHT22;551;48.524;9.056;2022-09-19T17:23:42;14.70;1.00
506;DHT22;551;48.524;9.056;2022-09-19T17:26:09;14.70;1.00
506;DHT22;551;48.524;9.056;2022-09-19T17:28:35;14.60;1.00
506;DHT22;551;48.524;9.056;2022-09-19T17:31:01;14.50;1.00
506;DHT22;551;48.524;9.056;2022-09-19T17:33:28;14.50;1.00
506;DHT22;551;48.524;9.056;2022-09-19T17:35:54;14.40;1.00
506;DHT22;551;48.524;9.056;2022-09-19T17:38:25;14.40;1.00
506;DHT22;551;48.524;9.056;2022-09-19T17:40:51;14.30;1.00
506;DHT22;551;48.524;9.056;2022-09-19T17:43:19;14.20;1.00
506;DHT22;551;48.524;9.056;2022-09-19T17:45:47;14.20;1.00
506;DHT22;551;48.524;9.056;2022-09-19T17:48:15;14.20;1.00
506;DHT22;551;48.524;9.056;2022-09-19T17:50:41;14.20;1.00
506;DHT22;551;48.524;9.056;2022-09-19T17:53:07;14.10;1.00
506;DHT22;551;48.524;9.056;2022-09-19T17:55:34;14.10;1.00
506;DHT22;551;48.524;9.056;2022-09-19T17:57:59;14.10;1.00
506;DHT22;551;48.524;9.056;2022-09-19T18:00:25;14.10;1.00
506;DHT22;551;48.524;9.056;2022-09-19T18:02:51;14.00;1.00
506;DHT22;551;48.524;9.056;2022-09-19T18:05:35;14.10;1.00
506;DHT22;551;48.524;9.056;2022-09-19T18:08:01;14.00;1.00
506;DHT22;551;48.524;9.056;2022-09-19T18:10:28;13.90;1.00
506;DHT22;551;48.524;9.056;2022-09-19T18:12:55;13.90;1.00
506;DHT22;551;48.524;9.056;2022-09-19T18:15:23;13.90;1.00
506;DHT22;551;48.524;9.056;2022-09-19T18:17:54;14.00;1.00
506;DHT22;551;48.524;9.056;2022-09-19T18:20:21;13.90;1.00
506;DHT22;551;48.524;9.056;2022-09-19T18:22:48;13.90;1.00
506;DHT22;551;48.524;9.056;2022-09-19T18:25:15;13.80;1.00
506;DHT22;551;48.524;9.056;2022-09-19T18:27:45;13.80;1.00
506;DHT22;551;48.524;9.056;2022-09-19T18:30:13;13.70;1.00
506;DHT22;551;48.524;9.056;2022-09-19T18:32:44;13.70;1.00
506;DHT22;551;48.524;9.056;2022-09-19T18:35:11;13.70;1.00
506;DHT22;551;48.524;9.056;2022-09-19T18:37:37;13.60;1.00
506;DHT22;551;48.524;9.056;2022-09-19T18:40:05;13.60;1.00
506;DHT22;551;48.524;9.056;2022-09-19T18:42:30;13.60;1.00
506;DHT22;551;48.524;9.056;2022-09-19T18:44:56;13.60;1.00
506;DHT22;551;48.524;9.056;2022-09-19T18:47:21;13.60;1.00
506;DHT22;551;48.524;9.056;2022-09-19T18:49:47;13.60;1.00
506;DHT22;551;48.524;9.056;2022-09-19T18:52:14;13.60;1.00
506;DHT22;551;48.524;9.056;2022-09-19T18:54:40;13.50;1.00
506;DHT22;551;48.524;9.056;2022-09-19T18:57:06;13.50;1.00
506;DHT22;551;48.524;9.056;2022-09-19T18:59:32;13.50;1.00
506;DHT22;551;48.524;9.056;2022-09-19T19:01:57;13.50;1.00
506;DHT22;551;48.524;9.056;2022-09-19T19:04:24;13.40;1.00
506;DHT22;551;48.524;9.056;2022-09-19T19:06:50;13.40;1.00
506;DHT22;551;48.524;9.056;2022-09-19T19:09:15;13.40;1.00
506;DHT22;551;48.524;9.056;2022-09-19T19:11:41;13.40;1.00
506;DHT22;551;48.524;9.056;2022-09-19T19:14:06;13.40;1.00
506;DHT22;551;48.524;9.056;2022-09-19T19:16:35;13.40;1.00
506;DHT22;551;48.524;9.056;2022-09-19T19:19:02;13.30;1.00
506;DHT22;551;48.524;9.056;2022-09-19T19:21:36;13.30;1.00
506;DHT22;551;48.524;9.056;2022-09-19T19:24:05;13.30;1.00
506;DHT22;551;48.524;9.056;2022-09-19T19:26:33;13.40;1.00
506;DHT22;551;48.524;9.056;2022-09-19T19:28:59;13.30;1.00
506;DHT22;551;48.524;9.056;2022-09-19T19:31:25;13.40;1.00
506;DHT22;551;48.524;9.056;2022-09-19T19:33:52;13.40;1.00
506;DHT22;551;48.524;9.056;2022-09-19T19:36:20;13.40;1.00
506;DHT22;551;48.524;9.056;2022-09-19T19:38:47;13.40;1.00
506;DHT22;551;48.524;9.056;2022-09-19T19:41:18;13.30;1.00
506;DHT22;551;48.524;9.056;2022-09-19T19:43:45;13.10;1.00
506;DHT22;551;48.524;9.056;2022-09-19T19:46:16;13.10;1.00
506;DHT22;551;48.524;9.056;2022-09-19T19:48:42;13.00;1.00
506;DHT22;551;48.524;9.056;2022-09-19T19:51:12;13.00;1.00
506;DHT22;551;48.524;9.056;2022-09-19T19:53:38;13.00;1.00
506;DHT22;551;48.524;9.056;2022-09-19T19:56:15;12.90;1.00
506;DHT22;551;48.524;9.056;2022-09-19T19:58:41;12.80;1.00